Zodiac — WTH5653 — position and weather

sailwx.info

Track history (hours):
 
Tides and Currents Weather Stations Pressure Air Temp Water Temp Dewpoint Dewpoint Depression Visibility Wind Speed Wind Dir Waves Ship Positions

Zodiac

Ship's website: http://www.schoonerzodiac.com/

Owner: VESSEL ZODIAC CORP, Bellingham, WA. More information available from US FCC via Universal Licensing System and Coast Guard Vessel Documentation Center.

Last reported at 2017-Aug-22 22:28 UTC. Time now 2017-Aug-22 22:38 UTC.
Position N 50°08' W 124°43'.

Type: Sailing vessel. MMSI: 366968070.

Date/timePositionNaut miles runAvg speedWind from/ knotsBaromVisibWave heightAir tempDewpointWater temp
2017-Aug-22 22:28N 50°08' W 124°43'0 0.0
2017-Aug-22 21:58N 50°08' W 124°43'0 0.0
2017-Aug-22 21:30N 50°08' W 124°43'0 0.1
2017-Aug-22 21:00N 50°08' W 124°43'0 0.0
2017-Aug-22 20:30N 50°08' W 124°43'0 0.0
2017-Aug-22 20:00N 50°08' W 124°43'0 0.1
2017-Aug-22 19:30N 50°08' W 124°43'0 0.2
2017-Aug-22 19:00N 50°09' W 124°43'2 4.8
2017-Aug-22 18:30N 50°06' W 124°44'4 8.7
2017-Aug-22 18:00N 50°04' W 124°50'4 8.2
2017-Aug-22 17:30N 50°00' W 124°50'4 8.5
2017-Aug-22 17:00N 49°57' W 124°45'4 8.4
2017-Aug-22 16:30N 49°53' W 124°42'5 9.1
2017-Aug-22 16:00N 49°49' W 124°40'5 9.2
2017-Aug-22 15:30N 49°44' W 124°39'3 6.8
2017-Aug-22 15:00N 49°42' W 124°36'5 9.0
2017-Aug-22 14:30N 49°38' W 124°31'4 8.7
2017-Aug-22 14:00N 49°35' W 124°26'5 9.0
2017-Aug-22 13:30N 49°32' W 124°21'1 2.9
2017-Aug-22 13:01N 49°31' W 124°20'0 0.0
2017-Aug-22 12:28N 49°31' W 124°20'0 0.0
2017-Aug-22 12:01N 49°31' W 124°20'0 0.0
2017-Aug-22 11:31N 49°31' W 124°20'0 0.0
2017-Aug-22 10:58N 49°31' W 124°20'0 0.0
2017-Aug-22 10:28N 49°31' W 124°20'0 0.0
2017-Aug-22 10:01N 49°31' W 124°20'0 0.0
2017-Aug-22 09:28N 49°31' W 124°20'0 0.0
2017-Aug-22 08:58N 49°31' W 124°20'0 0.0
2017-Aug-22 08:31N 49°31' W 124°20'0 0.0
2017-Aug-22 07:58N 49°31' W 124°20'0 0.0
2017-Aug-22 07:30N 49°31' W 124°20'0 0.0
2017-Aug-22 07:00N 49°31' W 124°20'0 0.0
2017-Aug-22 06:30N 49°31' W 124°20'0 0.0
2017-Aug-22 06:00N 49°31' W 124°20'0 0.0
2017-Aug-22 05:30N 49°31' W 124°20'0 0.5
2017-Aug-22 05:00N 49°31' W 124°20'4 8.2
2017-Aug-22 04:30N 49°31' W 124°13'4 7.6
2017-Aug-22 04:00N 49°29' W 124°09'4 8.6
2017-Aug-22 03:30N 49°26' W 124°04'4 8.5
2017-Aug-22 03:00N 49°23' W 123°58'4 8.4
2017-Aug-22 02:30N 49°21' W 123°53'4 8.1
2017-Aug-22 02:00N 49°18' W 123°48'4 7.9
2017-Aug-22 01:30N 49°15' W 123°44'4 8.0
2017-Aug-22 01:00N 49°12' W 123°40'4 8.7
2017-Aug-22 00:30N 49°09' W 123°36'5 9.1
2017-Aug-22 00:00N 49°06' W 123°31'5 9.2
2017-Aug-21 23:30N 49°02' W 123°27'5 9.1
2017-Aug-21 23:00N 48°58' W 123°23'5 9.5
2017-Aug-21 22:30N 48°54' W 123°19'4 7.5
2017-Aug-21 22:00N 48°51' W 123°21'4 7.4
2017-Aug-21 21:29N 48°47' W 123°20'510.4
2017-Aug-21 21:00N 48°42' W 123°17'5 9.7
2017-Aug-21 20:30N 48°38' W 123°15'5 9.4
2017-Aug-21 20:00N 48°33' W 123°14'3 6.3
2017-Aug-21 19:30N 48°30' W 123°14'4 7.7
2017-Aug-21 19:00N 48°26' W 123°13'4 8.6
2017-Aug-21 18:30N 48°23' W 123°18'4 8.5
2017-Aug-21 18:00N 48°25' W 123°24'1 1.4
2017-Aug-21 17:23N 48°25' W 123°22'0 0.0
2017-Aug-21 16:53N 48°25' W 123°22'0 0.0
2017-Aug-21 16:29N 48°25' W 123°22'0 0.0
2017-Aug-21 15:59N 48°25' W 123°22'0 0.0
2017-Aug-21 15:27N 48°25' W 123°22'0 0.0
2017-Aug-21 15:00N 48°25' W 123°22'0 0.0
2017-Aug-21 14:30N 48°25' W 123°22'0 0.0
2017-Aug-21 14:00N 48°25' W 123°22'0 0.0
2017-Aug-21 13:27N 48°25' W 123°22'0 0.0
2017-Aug-21 12:57N 48°25' W 123°22'0 0.0
2017-Aug-21 12:27N 48°25' W 123°22'0 0.0
2017-Aug-21 11:51N 48°25' W 123°22'0 0.0
2017-Aug-21 11:27N 48°25' W 123°22'0 0.0
2017-Aug-21 10:57N 48°25' W 123°22'0 0.0
2017-Aug-21 10:27N 48°25' W 123°22'0 0.0
2017-Aug-21 09:57N 48°25' W 123°22'0 0.0
2017-Aug-21 09:27N 48°25' W 123°22'0 0.0
2017-Aug-21 08:57N 48°25' W 123°22'0 0.0
2017-Aug-21 08:27N 48°25' W 123°22'0 0.0
2017-Aug-21 08:00N 48°25' W 123°22'0 0.0
2017-Aug-21 07:27N 48°25' W 123°22'0 0.0
2017-Aug-21 06:57N 48°25' W 123°22'0 0.0
2017-Aug-21 06:30N 48°25' W 123°22'0 0.0
2017-Aug-21 05:54N 48°25' W 123°22'0 0.0
2017-Aug-21 05:27N 48°25' W 123°22'0 0.0
2017-Aug-21 04:57N 48°25' W 123°22'0 0.0
2017-Aug-21 04:30N 48°25' W 123°22'0 0.0
2017-Aug-21 04:00N 48°25' W 123°22'0 0.0
2017-Aug-21 03:30N 48°25' W 123°22'0 0.0
2017-Aug-21 03:00N 48°25' W 123°22'0 0.0
2017-Aug-21 02:27N 48°25' W 123°22'0 0.0
2017-Aug-21 02:00N 48°25' W 123°22'0 0.0
2017-Aug-21 01:30N 48°25' W 123°22'0 0.0
2017-Aug-21 01:00N 48°25' W 123°22'0 0.0
2017-Aug-21 00:30N 48°25' W 123°22'0 0.0
2017-Aug-21 00:00N 48°25' W 123°22'0 0.0
2017-Aug-20 23:30N 48°25' W 123°22'0 0.0
2017-Aug-20 23:00N 48°25' W 123°22'0 0.0
2017-Aug-20 22:30N 48°25' W 123°22'0 0.0
2017-Aug-20 22:00N 48°25' W 123°22'0 0.0
2017-Aug-20 21:30N 48°25' W 123°22'0 0.2
2017-Aug-20 21:00N 48°25' W 123°23'2 3.2
2017-Aug-20 20:30N 48°24' W 123°23'3 6.3
2017-Aug-20 20:00N 48°23' W 123°18'2 4.6
2017-Aug-20 19:30N 48°24' W 123°15'2 5.0
2017-Aug-20 19:00N 48°24' W 123°11'4 7.0
2017-Aug-20 18:30N 48°25' W 123°06'3 6.8
2017-Aug-20 18:00N 48°25' W 123°01'4 8.1
2017-Aug-20 17:30N 48°25' W 122°55'3 6.0
2017-Aug-20 17:00N 48°25' W 122°50'0 0.1
2017-Aug-20 13:06N 48°26' W 122°50'0 0.0
2017-Aug-20 12:51N 48°26' W 122°50'0 0.0
2017-Aug-20 11:03N 48°26' W 122°50'0 0.0
2017-Aug-20 09:30N 48°26' W 122°50'0 0.0
2017-Aug-20 09:00N 48°26' W 122°50'0 0.0
2017-Aug-20 08:24N 48°26' W 122°50'0 0.0
2017-Aug-20 07:57N 48°26' W 122°50'0 0.0
2017-Aug-20 07:18N 48°26' W 122°50'0 0.0
2017-Aug-20 06:18N 48°26' W 122°50'0 0.0
2017-Aug-20 06:00N 48°26' W 122°50'0 0.0
2017-Aug-20 05:27N 48°26' W 122°50'0 0.0
2017-Aug-20 05:00N 48°26' W 122°50'0 0.0
2017-Aug-20 02:36N 48°26' W 122°50'0 0.0
2017-Aug-20 02:30N 48°26' W 122°50'2 3.4
2017-Aug-20 02:00N 48°26' W 122°48'5 9.1
2017-Aug-20 01:30N 48°29' W 122°43'4 8.4
2017-Aug-20 01:00N 48°31' W 122°38'2 3.0
2017-Aug-20 00:30N 48°31' W 122°36'1 2.1
2017-Aug-20 00:00N 48°31' W 122°35'3 5.3
2017-Aug-19 23:30N 48°34' W 122°35'1 2.2
2017-Aug-19 22:58N 48°35' W 122°35'2 4.2
2017-Aug-19 22:30N 48°37' W 122°36'0 0.8
2017-Aug-19 22:00N 48°37' W 122°36'2 3.7
2017-Aug-19 21:30N 48°39' W 122°34'5 9.3
2017-Aug-19 21:00N 48°43' W 122°31'0 0.8
2017-Aug-19 20:29N 48°43' W 122°31'0 0.0
2017-Aug-19 19:59N 48°43' W 122°31'0 0.0
2017-Aug-19 19:23N 48°43' W 122°31'0 0.0
2017-Aug-19 18:53N 48°43' W 122°31'0 0.0
2017-Aug-19 18:29N 48°43' W 122°31'0 0.0
2017-Aug-19 17:59N 48°43' W 122°31'0 0.0
2017-Aug-19 17:29N 48°43' W 122°31'0 0.0
2017-Aug-19 16:53N 48°43' W 122°31'0 0.0
2017-Aug-19 16:29N 48°43' W 122°31'0 0.0
2017-Aug-19 15:50N 48°43' W 122°31'0 0.0
2017-Aug-19 15:20N 48°43' W 122°31'0 0.0
2017-Aug-19 14:59N 48°43' W 122°31'0 0.0
2017-Aug-19 13:59N 48°43' W 122°31'0 0.0
2017-Aug-19 13:29N 48°43' W 122°31'0 0.0
2017-Aug-19 12:59N 48°43' W 122°31'0 0.0
2017-Aug-19 12:29N 48°43' W 122°31'0 0.0
2017-Aug-19 11:59N 48°43' W 122°31'0 0.0
2017-Aug-19 11:29N 48°43' W 122°31'0 0.0
2017-Aug-19 10:59N 48°43' W 122°31'0 0.0
2017-Aug-19 10:29N 48°43' W 122°31'0 0.0
2017-Aug-19 09:53N 48°43' W 122°31'0 0.0
2017-Aug-19 09:11N 48°43' W 122°31'0 0.0
2017-Aug-19 08:59N 48°43' W 122°31'0 0.0
2017-Aug-19 08:29N 48°43' W 122°31'0 0.0
2017-Aug-19 06:11N 48°43' W 122°31'0 0.0
2017-Aug-19 05:53N 48°43' W 122°31'0 0.0
2017-Aug-19 05:29N 48°43' W 122°31'0 0.0
2017-Aug-19 04:53N 48°43' W 122°31'0 0.0
2017-Aug-19 04:24N 48°43' W 122°31'0 0.7
2017-Aug-19 03:58N 48°44' W 122°31'2 3.6
2017-Aug-19 03:30N 48°42' W 122°33'2 4.2
2017-Aug-19 03:00N 48°41' W 122°34'1 2.4
2017-Aug-19 02:30N 48°41' W 122°33'1 1.8
2017-Aug-19 02:00N 48°42' W 122°34'2 3.4
2017-Aug-19 01:30N 48°43' W 122°31'0 0.9
2017-Aug-19 00:59N 48°43' W 122°31'0 0.0
2017-Aug-19 00:29N 48°43' W 122°31'0 0.0
2017-Aug-18 23:59N 48°43' W 122°31'0 0.0
2017-Aug-18 23:29N 48°43' W 122°31'0 0.0
2017-Aug-18 22:59N 48°43' W 122°31'0 0.0
2017-Aug-18 22:23N 48°43' W 122°31'0 0.0
2017-Aug-18 21:53N 48°43' W 122°31'0 0.0
2017-Aug-18 21:17N 48°43' W 122°31'0 0.0
2017-Aug-18 20:59N 48°43' W 122°31'0 0.0
2017-Aug-18 20:29N 48°43' W 122°31'0 0.0
2017-Aug-18 19:59N 48°43' W 122°31'0 0.0
2017-Aug-18 19:23N 48°43' W 122°31'0 0.0
2017-Aug-18 18:59N 48°43' W 122°31'0 0.0
2017-Aug-18 18:23N 48°43' W 122°31'0 0.0
2017-Aug-18 17:53N 48°43' W 122°31'0 0.0
2017-Aug-18 17:23N 48°43' W 122°31'0 0.0
2017-Aug-18 16:59N 48°43' W 122°31'0 0.0
2017-Aug-18 16:29N 48°43' W 122°31'0 0.0
2017-Aug-18 15:59N 48°43' W 122°31'0 0.0
2017-Aug-18 15:29N 48°43' W 122°31'0 0.0
2017-Aug-18 14:59N 48°43' W 122°31'0 0.0
2017-Aug-18 13:53N 48°43' W 122°31'0 0.0
2017-Aug-18 13:29N 48°43' W 122°31'0 0.0
2017-Aug-18 12:53N 48°43' W 122°31'0 0.0
2017-Aug-18 12:29N 48°43' W 122°31'0 0.0
2017-Aug-18 11:59N 48°43' W 122°31'0 0.0
2017-Aug-18 11:29N 48°43' W 122°31'0 0.0
2017-Aug-18 10:59N 48°43' W 122°31'0 0.0
2017-Aug-18 10:29N 48°43' W 122°31'0 0.0
2017-Aug-18 09:59N 48°43' W 122°31'0 0.0
2017-Aug-18 09:29N 48°43' W 122°31'0 0.0
2017-Aug-18 08:53N 48°43' W 122°31'0 0.0
2017-Aug-18 08:29N 48°43' W 122°31'0 0.0
2017-Aug-18 07:53N 48°43' W 122°31'0 0.0
2017-Aug-18 06:47N 48°43' W 122°31'0 0.0
2017-Aug-18 05:41N 48°43' W 122°31'0 0.0
2017-Aug-18 05:29N 48°43' W 122°31'0 0.0
2017-Aug-18 04:47N 48°43' W 122°31'0 0.0
2017-Aug-18 04:29N 48°43' W 122°31'0 0.0
2017-Aug-18 02:53N 48°43' W 122°31'0 0.0
2017-Aug-18 02:29N 48°43' W 122°31'0 0.0
2017-Aug-18 01:53N 48°43' W 122°31'0 0.0
2017-Aug-18 01:29N 48°43' W 122°31'0 0.0
2017-Aug-18 00:59N 48°43' W 122°31'0 0.0
2017-Aug-18 00:17N 48°43' W 122°31'0 0.0
2017-Aug-17 23:59N 48°43' W 122°31'0 0.0
2017-Aug-17 23:29N 48°43' W 122°31'0 0.0
2017-Aug-17 22:59N 48°43' W 122°31'0 0.0
2017-Aug-17 22:29N 48°43' W 122°31'0 0.0
2017-Aug-17 21:59N 48°43' W 122°31'0 0.0
2017-Aug-17 21:21N 48°43' W 122°31'0 0.2
2017-Aug-17 21:00N 48°43' W 122°31'1 1.5
2017-Aug-17 20:31N 48°43' W 122°32'5 9.6
2017-Aug-17 20:00N 48°38' W 122°34'4 8.4
2017-Aug-17 19:30N 48°40' W 122°40'1 2.5
2017-Aug-17 19:00N 48°40' W 122°41'1 1.4
2017-Aug-17 18:30N 48°41' W 122°41'2 3.8
2017-Aug-17 18:00N 48°41' W 122°44'1 2.6
2017-Aug-17 17:30N 48°41' W 122°46'4 8.6
2017-Aug-17 17:01N 48°43' W 122°51'4 8.1
2017-Aug-17 16:30N 48°43' W 122°57'4 8.6
2017-Aug-17 16:01N 48°40' W 123°02'5 9.1
2017-Aug-17 15:30N 48°41' W 123°09'2 3.8
2017-Aug-17 14:57N 48°41' W 123°12'0 0.0
2017-Aug-17 14:30N 48°41' W 123°12'0 0.0
2017-Aug-17 13:57N 48°41' W 123°12'0 0.0
2017-Aug-17 13:27N 48°41' W 123°12'0 0.0
2017-Aug-17 13:00N 48°41' W 123°12'0 0.0
2017-Aug-17 12:24N 48°41' W 123°12'0 0.0
2017-Aug-17 12:00N 48°41' W 123°12'0 0.0
2017-Aug-17 11:27N 48°41' W 123°12'0 0.0
2017-Aug-17 11:00N 48°41' W 123°12'0 0.0
2017-Aug-17 10:30N 48°41' W 123°12'0 0.0
2017-Aug-17 09:51N 48°41' W 123°12'0 0.1
2017-Aug-17 09:21N 48°41' W 123°12'0 0.1
2017-Aug-17 08:51N 48°41' W 123°12'0 0.0
2017-Aug-17 08:09N 48°41' W 123°12'0 0.0
2017-Aug-17 07:54N 48°41' W 123°12'0 0.0
2017-Aug-17 07:27N 48°41' W 123°12'0 0.0
2017-Aug-17 07:00N 48°41' W 123°12'0 0.0
2017-Aug-17 06:24N 48°41' W 123°12'0 0.0
2017-Aug-17 05:57N 48°41' W 123°12'0 0.0
2017-Aug-17 05:27N 48°41' W 123°12'0 0.0
2017-Aug-17 04:57N 48°41' W 123°12'0 0.0
2017-Aug-17 04:27N 48°41' W 123°12'0 0.0
2017-Aug-17 04:00N 48°41' W 123°12'0 0.0
2017-Aug-17 03:12N 48°41' W 123°12'0 0.2
2017-Aug-17 03:00N 48°41' W 123°12'0 0.0
2017-Aug-17 02:27N 48°41' W 123°12'0 0.1
2017-Aug-17 01:51N 48°41' W 123°12'0 0.1
2017-Aug-17 01:12N 48°41' W 123°12'0 0.0
2017-Aug-17 01:00N 48°41' W 123°12'0 0.0
2017-Aug-17 00:30N 48°41' W 123°12'0 0.0
2017-Aug-16 23:24N 48°41' W 123°12'0 0.0
2017-Aug-16 23:00N 48°41' W 123°12'2 3.1
2017-Aug-16 22:30N 48°41' W 123°10'1 2.6
2017-Aug-16 22:00N 48°42' W 123°08'1 2.3
2017-Aug-16 21:30N 48°41' W 123°07'2 3.2
2017-Aug-16 21:00N 48°40' W 123°05'2 3.2
2017-Aug-16 20:30N 48°38' W 123°04'1 2.4
2017-Aug-16 20:00N 48°37' W 123°02'1 1.4
2017-Aug-16 19:30N 48°37' W 123°02'1 1.1
2017-Aug-16 19:00N 48°36' W 123°02'1 1.8
2017-Aug-16 18:30N 48°37' W 123°02'3 5.0
2017-Aug-16 18:00N 48°40' W 123°01'3 5.1
2017-Aug-16 17:30N 48°42' W 122°59'3 5.6
2017-Aug-16 17:00N 48°43' W 122°56'3 6.2
2017-Aug-16 16:30N 48°45' W 122°52'2 3.6
2017-Aug-16 16:00N 48°46' W 122°54'0 0.0
2017-Aug-16 15:20N 48°46' W 122°54'0 0.0
2017-Aug-16 14:41N 48°46' W 122°54'0 0.0
2017-Aug-16 14:20N 48°46' W 122°54'0 0.0
2017-Aug-16 11:44N 48°46' W 122°54'0 0.0
2017-Aug-16 11:14N 48°46' W 122°54'0 0.0
2017-Aug-16 08:59N 48°46' W 122°54'0 0.0
2017-Aug-16 08:14N 48°46' W 122°54'0 0.0
2017-Aug-16 07:56N 48°46' W 122°54'0 0.0
2017-Aug-16 07:23N 48°46' W 122°54'0 0.0
2017-Aug-16 05:23N 48°46' W 122°54'0 0.0
2017-Aug-16 04:56N 48°46' W 122°54'0 0.0
2017-Aug-16 04:11N 48°46' W 122°54'0 0.0
2017-Aug-15 23:29N 48°46' W 122°54'1 1.1
2017-Aug-15 22:55N 48°45' W 122°53'4 8.8
2017-Aug-15 22:30N 48°44' W 122°48'4 8.1
2017-Aug-15 22:00N 48°41' W 122°43'2 3.6
2017-Aug-15 21:31N 48°40' W 122°41'1 1.9
2017-Aug-15 21:00N 48°40' W 122°40'1 3.0
2017-Aug-15 20:30N 48°39' W 122°38'3 6.3
2017-Aug-15 20:00N 48°39' W 122°33'1 2.5
2017-Aug-15 19:31N 48°40' W 122°32'1 1.3
2017-Aug-15 18:58N 48°40' W 122°33'0 0.4
2017-Aug-15 18:31N 48°40' W 122°33'1 1.8
2017-Aug-15 17:58N 48°41' W 122°33'3 6.0
2017-Aug-15 17:30N 48°43' W 122°31'0 0.0
2017-Aug-15 16:48N 48°43' W 122°31'0 0.0
2017-Aug-15 16:24N 48°43' W 122°31'0 0.0
2017-Aug-15 15:48N 48°43' W 122°31'0 0.0
2017-Aug-15 15:30N 48°43' W 122°31'0 0.0
2017-Aug-15 14:18N 48°43' W 122°31'0 0.0
2017-Aug-15 14:00N 48°43' W 122°31'0 0.0
2017-Aug-15 13:30N 48°43' W 122°31'0 0.0
2017-Aug-15 13:00N 48°43' W 122°31'0 0.0
2017-Aug-15 12:30N 48°43' W 122°31'0 0.0
2017-Aug-15 12:00N 48°43' W 122°31'0 0.0
2017-Aug-15 11:24N 48°43' W 122°31'0 0.0
2017-Aug-15 11:00N 48°43' W 122°31'0 0.0
2017-Aug-15 10:30N 48°43' W 122°31'0 0.0
2017-Aug-15 10:00N 48°43' W 122°31'0 0.0
2017-Aug-15 09:24N 48°43' W 122°31'0 0.0
2017-Aug-15 08:48N 48°43' W 122°31'0 0.0
2017-Aug-15 08:30N 48°43' W 122°31'0 0.0
2017-Aug-15 08:00N 48°43' W 122°31'0 0.0
2017-Aug-15 07:24N 48°43' W 122°31'0 0.0
2017-Aug-15 07:00N 48°43' W 122°31'0 0.0
2017-Aug-15 06:30N 48°43' W 122°31'0 0.0
2017-Aug-15 06:00N 48°43' W 122°31'0 0.0
2017-Aug-15 05:24N 48°43' W 122°31'0 0.0
2017-Aug-15 04:48N 48°43' W 122°31'0 0.0
2017-Aug-15 04:30N 48°43' W 122°31'0 0.0
2017-Aug-15 03:00N 48°43' W 122°31'0 0.0
2017-Aug-15 02:30N 48°43' W 122°31'0 0.0
2017-Aug-15 01:48N 48°43' W 122°31'0 0.0
2017-Aug-15 01:27N 48°43' W 122°31'0 0.0
2017-Aug-15 00:54N 48°43' W 122°31'0 0.0
2017-Aug-14 22:19N 48°43' W 122°31'0 0.3
2017-Aug-14 21:59N 48°43' W 122°31'3 6.7
2017-Aug-14 21:30N 48°41' W 122°33'0 0.9
2017-Aug-14 20:59N 48°40' W 122°33'0 0.9
2017-Aug-14 20:30N 48°40' W 122°33'1 2.8
2017-Aug-14 20:00N 48°38' W 122°34'1 2.7
2017-Aug-14 19:30N 48°38' W 122°36'1 1.2
2017-Aug-14 19:00N 48°38' W 122°36'3 5.5
2017-Aug-14 18:30N 48°38' W 122°40'5 9.1
2017-Aug-14 18:00N 48°37' W 122°47'4 7.2
2017-Aug-14 17:30N 48°34' W 122°50'2 3.5
2017-Aug-14 17:00N 48°33' W 122°51'0 0.0
2017-Aug-14 16:30N 48°33' W 122°51'0 0.0
2017-Aug-14 16:00N 48°33' W 122°51'0 0.0
2017-Aug-14 15:26N 48°33' W 122°51'0 0.0
2017-Aug-14 14:59N 48°33' W 122°51'0 0.0
2017-Aug-14 14:29N 48°33' W 122°51'0 0.0
2017-Aug-14 13:59N 48°33' W 122°51'0 0.0
2017-Aug-14 13:26N 48°33' W 122°51'0 0.0
2017-Aug-14 12:59N 48°33' W 122°51'0 0.0
2017-Aug-14 12:29N 48°33' W 122°51'0 0.0
2017-Aug-14 11:59N 48°33' W 122°51'0 0.0
2017-Aug-14 11:29N 48°33' W 122°51'0 0.1
2017-Aug-14 10:56N 48°33' W 122°51'0 0.0
2017-Aug-14 10:29N 48°33' W 122°51'0 0.0
2017-Aug-14 09:59N 48°33' W 122°51'0 0.0
2017-Aug-14 09:29N 48°33' W 122°51'0 0.0
2017-Aug-14 08:59N 48°33' W 122°51'0 0.0
2017-Aug-14 08:29N 48°33' W 122°51'0 0.0
2017-Aug-14 07:59N 48°33' W 122°51'0 0.0
2017-Aug-14 07:29N 48°33' W 122°51'0 0.0
2017-Aug-14 06:59N 48°33' W 122°51'0 0.0
2017-Aug-14 06:29N 48°33' W 122°51'0 0.0
2017-Aug-14 05:56N 48°33' W 122°51'0 0.0
2017-Aug-14 05:29N 48°33' W 122°51'0 0.0
2017-Aug-14 04:56N 48°33' W 122°51'0 0.0
2017-Aug-14 04:29N 48°33' W 122°51'0 0.0
2017-Aug-14 03:56N 48°33' W 122°51'0 0.0
2017-Aug-14 03:29N 48°33' W 122°51'0 0.0
2017-Aug-14 02:56N 48°33' W 122°51'0 0.0
2017-Aug-14 02:29N 48°33' W 122°51'0 0.0
2017-Aug-14 01:59N 48°33' W 122°51'0 0.0
2017-Aug-14 01:26N 48°33' W 122°51'0 0.0
2017-Aug-14 00:59N 48°33' W 122°51'0 0.0
2017-Aug-14 00:29N 48°33' W 122°51'0 0.0
2017-Aug-13 23:53N 48°33' W 122°51'0 0.0
2017-Aug-13 23:30N 48°33' W 122°51'3 5.1
2017-Aug-13 23:00N 48°35' W 122°53'2 3.0
2017-Aug-13 22:30N 48°33' W 122°55'2 4.4
2017-Aug-13 22:00N 48°32' W 122°56'1 1.9
2017-Aug-13 21:30N 48°31' W 122°57'3 6.9
2017-Aug-13 21:00N 48°34' W 122°60'3 6.7
2017-Aug-13 20:30N 48°36' W 123°04'3 6.6
2017-Aug-13 20:00N 48°39' W 123°06'2 4.8
2017-Aug-13 19:30N 48°41' W 123°08'3 6.6
2017-Aug-13 19:00N 48°40' W 123°03'2 4.5
2017-Aug-13 18:30N 48°41' W 122°60'2 3.6
2017-Aug-13 18:00N 48°42' W 122°58'2 3.9
2017-Aug-13 17:30N 48°44' W 122°56'2 3.4
2017-Aug-13 16:57N 48°44' W 122°54'1 2.8
2017-Aug-13 16:30N 48°46' W 122°53'0 0.5
2017-Aug-13 15:44N 48°46' W 122°54'0 0.0
2017-Aug-13 15:29N 48°46' W 122°54'0 0.0
2017-Aug-13 14:59N 48°46' W 122°54'0 0.0
2017-Aug-13 14:08N 48°46' W 122°54'0 0.0
2017-Aug-13 13:59N 48°46' W 122°54'0 0.0
2017-Aug-13 04:17N 48°46' W 122°54'0 0.0
2017-Aug-13 00:02N 48°46' W 122°54'0 0.0
2017-Aug-12 23:50N 48°46' W 122°54'0 0.0
2017-Aug-12 23:11N 48°46' W 122°54'  
Track history (hours):
 
Tides and Currents Weather Stations Pressure Air Temp Water Temp Dewpoint Dewpoint Depression Visibility Wind Speed Wind Dir Waves Ship Positions

Zodiac

Ship's website: http://www.schoonerzodiac.com/

Owner: VESSEL ZODIAC CORP, Bellingham, WA. More information available from US FCC via Universal Licensing System and Coast Guard Vessel Documentation Center.

Last reported at 2017-Aug-22 22:28 UTC. Time now 2017-Aug-22 22:38 UTC.
Position N 50°08' W 124°43'.

Type: Sailing vessel. MMSI: 366968070.

Date/timePositionNaut miles runAvg speedWind from/ knotsBaromVisibWave heightAir tempDewpointWater temp
2017-Aug-22 22:28N 50°08' W 124°43'0 0.0
2017-Aug-22 21:58N 50°08' W 124°43'0 0.0
2017-Aug-22 21:30N 50°08' W 124°43'0 0.1
2017-Aug-22 21:00N 50°08' W 124°43'0 0.0
2017-Aug-22 20:30N 50°08' W 124°43'0 0.0
2017-Aug-22 20:00N 50°08' W 124°43'0 0.1
2017-Aug-22 19:30N 50°08' W 124°43'0 0.2
2017-Aug-22 19:00N 50°09' W 124°43'2 4.8
2017-Aug-22 18:30N 50°06' W 124°44'4 8.7
2017-Aug-22 18:00N 50°04' W 124°50'4 8.2
2017-Aug-22 17:30N 50°00' W 124°50'4 8.5
2017-Aug-22 17:00N 49°57' W 124°45'4 8.4
2017-Aug-22 16:30N 49°53' W 124°42'5 9.1
2017-Aug-22 16:00N 49°49' W 124°40'5 9.2
2017-Aug-22 15:30N 49°44' W 124°39'3 6.8
2017-Aug-22 15:00N 49°42' W 124°36'5 9.0
2017-Aug-22 14:30N 49°38' W 124°31'4 8.7
2017-Aug-22 14:00N 49°35' W 124°26'5 9.0
2017-Aug-22 13:30N 49°32' W 124°21'1 2.9
2017-Aug-22 13:01N 49°31' W 124°20'0 0.0
2017-Aug-22 12:28N 49°31' W 124°20'0 0.0
2017-Aug-22 12:01N 49°31' W 124°20'0 0.0
2017-Aug-22 11:31N 49°31' W 124°20'0 0.0
2017-Aug-22 10:58N 49°31' W 124°20'0 0.0
2017-Aug-22 10:28N 49°31' W 124°20'0 0.0
2017-Aug-22 10:01N 49°31' W 124°20'0 0.0
2017-Aug-22 09:28N 49°31' W 124°20'0 0.0
2017-Aug-22 08:58N 49°31' W 124°20'0 0.0
2017-Aug-22 08:31N 49°31' W 124°20'0 0.0
2017-Aug-22 07:58N 49°31' W 124°20'0 0.0
2017-Aug-22 07:30N 49°31' W 124°20'0 0.0
2017-Aug-22 07:00N 49°31' W 124°20'0 0.0
2017-Aug-22 06:30N 49°31' W 124°20'0 0.0
2017-Aug-22 06:00N 49°31' W 124°20'0 0.0
2017-Aug-22 05:30N 49°31' W 124°20'0 0.5
2017-Aug-22 05:00N 49°31' W 124°20'4 8.2
2017-Aug-22 04:30N 49°31' W 124°13'4 7.6
2017-Aug-22 04:00N 49°29' W 124°09'4 8.6
2017-Aug-22 03:30N 49°26' W 124°04'4 8.5
2017-Aug-22 03:00N 49°23' W 123°58'4 8.4
2017-Aug-22 02:30N 49°21' W 123°53'4 8.1
2017-Aug-22 02:00N 49°18' W 123°48'4 7.9
2017-Aug-22 01:30N 49°15' W 123°44'4 8.0
2017-Aug-22 01:00N 49°12' W 123°40'4 8.7
2017-Aug-22 00:30N 49°09' W 123°36'5 9.1
2017-Aug-22 00:00N 49°06' W 123°31'5 9.2
2017-Aug-21 23:30N 49°02' W 123°27'5 9.1
2017-Aug-21 23:00N 48°58' W 123°23'5 9.5
2017-Aug-21 22:30N 48°54' W 123°19'4 7.5
2017-Aug-21 22:00N 48°51' W 123°21'4 7.4
2017-Aug-21 21:29N 48°47' W 123°20'510.4
2017-Aug-21 21:00N 48°42' W 123°17'5 9.7
2017-Aug-21 20:30N 48°38' W 123°15'5 9.4
2017-Aug-21 20:00N 48°33' W 123°14'3 6.3
2017-Aug-21 19:30N 48°30' W 123°14'4 7.7
2017-Aug-21 19:00N 48°26' W 123°13'4 8.6
2017-Aug-21 18:30N 48°23' W 123°18'4 8.5
2017-Aug-21 18:00N 48°25' W 123°24'1 1.4
2017-Aug-21 17:23N 48°25' W 123°22'0 0.0
2017-Aug-21 16:53N 48°25' W 123°22'0 0.0
2017-Aug-21 16:29N 48°25' W 123°22'0 0.0
2017-Aug-21 15:59N 48°25' W 123°22'0 0.0
2017-Aug-21 15:27N 48°25' W 123°22'0 0.0
2017-Aug-21 15:00N 48°25' W 123°22'0 0.0
2017-Aug-21 14:30N 48°25' W 123°22'0 0.0
2017-Aug-21 14:00N 48°25' W 123°22'0 0.0
2017-Aug-21 13:27N 48°25' W 123°22'0 0.0
2017-Aug-21 12:57N 48°25' W 123°22'0 0.0
2017-Aug-21 12:27N 48°25' W 123°22'0 0.0
2017-Aug-21 11:51N 48°25' W 123°22'0 0.0
2017-Aug-21 11:27N 48°25' W 123°22'0 0.0
2017-Aug-21 10:57N 48°25' W 123°22'0 0.0
2017-Aug-21 10:27N 48°25' W 123°22'0 0.0
2017-Aug-21 09:57N 48°25' W 123°22'0 0.0
2017-Aug-21 09:27N 48°25' W 123°22'0 0.0
2017-Aug-21 08:57N 48°25' W 123°22'0 0.0
2017-Aug-21 08:27N 48°25' W 123°22'0 0.0
2017-Aug-21 08:00N 48°25' W 123°22'0 0.0
2017-Aug-21 07:27N 48°25' W 123°22'0 0.0
2017-Aug-21 06:57N 48°25' W 123°22'0 0.0
2017-Aug-21 06:30N 48°25' W 123°22'0 0.0
2017-Aug-21 05:54N 48°25' W 123°22'0 0.0
2017-Aug-21 05:27N 48°25' W 123°22'0 0.0
2017-Aug-21 04:57N 48°25' W 123°22'0 0.0
2017-Aug-21 04:30N 48°25' W 123°22'0 0.0
2017-Aug-21 04:00N 48°25' W 123°22'0 0.0
2017-Aug-21 03:30N 48°25' W 123°22'0 0.0
2017-Aug-21 03:00N 48°25' W 123°22'0 0.0
2017-Aug-21 02:27N 48°25' W 123°22'0 0.0
2017-Aug-21 02:00N 48°25' W 123°22'0 0.0
2017-Aug-21 01:30N 48°25' W 123°22'0 0.0
2017-Aug-21 01:00N 48°25' W 123°22'0 0.0
2017-Aug-21 00:30N 48°25' W 123°22'0 0.0
2017-Aug-21 00:00N 48°25' W 123°22'0 0.0
2017-Aug-20 23:30N 48°25' W 123°22'0 0.0
2017-Aug-20 23:00N 48°25' W 123°22'0 0.0
2017-Aug-20 22:30N 48°25' W 123°22'0 0.0
2017-Aug-20 22:00N 48°25' W 123°22'0 0.0
2017-Aug-20 21:30N 48°25' W 123°22'0 0.2
2017-Aug-20 21:00N 48°25' W 123°23'2 3.2
2017-Aug-20 20:30N 48°24' W 123°23'3 6.3
2017-Aug-20 20:00N 48°23' W 123°18'2 4.6
2017-Aug-20 19:30N 48°24' W 123°15'2 5.0
2017-Aug-20 19:00N 48°24' W 123°11'4 7.0
2017-Aug-20 18:30N 48°25' W 123°06'3 6.8
2017-Aug-20 18:00N 48°25' W 123°01'4 8.1
2017-Aug-20 17:30N 48°25' W 122°55'3 6.0
2017-Aug-20 17:00N 48°25' W 122°50'0 0.1
2017-Aug-20 13:06N 48°26' W 122°50'0 0.0
2017-Aug-20 12:51N 48°26' W 122°50'0 0.0
2017-Aug-20 11:03N 48°26' W 122°50'0 0.0
2017-Aug-20 09:30N 48°26' W 122°50'0 0.0
2017-Aug-20 09:00N 48°26' W 122°50'0 0.0
2017-Aug-20 08:24N 48°26' W 122°50'0 0.0
2017-Aug-20 07:57N 48°26' W 122°50'0 0.0
2017-Aug-20 07:18N 48°26' W 122°50'0 0.0
2017-Aug-20 06:18N 48°26' W 122°50'0 0.0
2017-Aug-20 06:00N 48°26' W 122°50'0 0.0
2017-Aug-20 05:27N 48°26' W 122°50'0 0.0
2017-Aug-20 05:00N 48°26' W 122°50'0 0.0
2017-Aug-20 02:36N 48°26' W 122°50'0 0.0
2017-Aug-20 02:30N 48°26' W 122°50'2 3.4
2017-Aug-20 02:00N 48°26' W 122°48'5 9.1
2017-Aug-20 01:30N 48°29' W 122°43'4 8.4
2017-Aug-20 01:00N 48°31' W 122°38'2 3.0
2017-Aug-20 00:30N 48°31' W 122°36'1 2.1
2017-Aug-20 00:00N 48°31' W 122°35'3 5.3
2017-Aug-19 23:30N 48°34' W 122°35'1 2.2
2017-Aug-19 22:58N 48°35' W 122°35'2 4.2
2017-Aug-19 22:30N 48°37' W 122°36'0 0.8
2017-Aug-19 22:00N 48°37' W 122°36'2 3.7
2017-Aug-19 21:30N 48°39' W 122°34'5 9.3
2017-Aug-19 21:00N 48°43' W 122°31'0 0.8
2017-Aug-19 20:29N 48°43' W 122°31'0 0.0
2017-Aug-19 19:59N 48°43' W 122°31'0 0.0
2017-Aug-19 19:23N 48°43' W 122°31'0 0.0
2017-Aug-19 18:53N 48°43' W 122°31'0 0.0
2017-Aug-19 18:29N 48°43' W 122°31'0 0.0
2017-Aug-19 17:59N 48°43' W 122°31'0 0.0
2017-Aug-19 17:29N 48°43' W 122°31'0 0.0
2017-Aug-19 16:53N 48°43' W 122°31'0 0.0
2017-Aug-19 16:29N 48°43' W 122°31'0 0.0
2017-Aug-19 15:50N 48°43' W 122°31'0 0.0
2017-Aug-19 15:20N 48°43' W 122°31'0 0.0
2017-Aug-19 14:59N 48°43' W 122°31'0 0.0
2017-Aug-19 13:59N 48°43' W 122°31'0 0.0
2017-Aug-19 13:29N 48°43' W 122°31'0 0.0
2017-Aug-19 12:59N 48°43' W 122°31'0 0.0
2017-Aug-19 12:29N 48°43' W 122°31'0 0.0
2017-Aug-19 11:59N 48°43' W 122°31'0 0.0
2017-Aug-19 11:29N 48°43' W 122°31'0 0.0
2017-Aug-19 10:59N 48°43' W 122°31'0 0.0
2017-Aug-19 10:29N 48°43' W 122°31'0 0.0
2017-Aug-19 09:53N 48°43' W 122°31'0 0.0
2017-Aug-19 09:11N 48°43' W 122°31'0 0.0
2017-Aug-19 08:59N 48°43' W 122°31'0 0.0
2017-Aug-19 08:29N 48°43' W 122°31'0 0.0
2017-Aug-19 06:11N 48°43' W 122°31'0 0.0
2017-Aug-19 05:53N 48°43' W 122°31'0 0.0
2017-Aug-19 05:29N 48°43' W 122°31'0 0.0
2017-Aug-19 04:53N 48°43' W 122°31'0 0.0
2017-Aug-19 04:24N 48°43' W 122°31'0 0.7
2017-Aug-19 03:58N 48°44' W 122°31'2 3.6
2017-Aug-19 03:30N 48°42' W 122°33'2 4.2
2017-Aug-19 03:00N 48°41' W 122°34'1 2.4
2017-Aug-19 02:30N 48°41' W 122°33'1 1.8
2017-Aug-19 02:00N 48°42' W 122°34'2 3.4
2017-Aug-19 01:30N 48°43' W 122°31'0 0.9
2017-Aug-19 00:59N 48°43' W 122°31'0 0.0
2017-Aug-19 00:29N 48°43' W 122°31'0 0.0
2017-Aug-18 23:59N 48°43' W 122°31'0 0.0
2017-Aug-18 23:29N 48°43' W 122°31'0 0.0
2017-Aug-18 22:59N 48°43' W 122°31'0 0.0
2017-Aug-18 22:23N 48°43' W 122°31'0 0.0
2017-Aug-18 21:53N 48°43' W 122°31'0 0.0
2017-Aug-18 21:17N 48°43' W 122°31'0 0.0
2017-Aug-18 20:59N 48°43' W 122°31'0 0.0
2017-Aug-18 20:29N 48°43' W 122°31'0 0.0
2017-Aug-18 19:59N 48°43' W 122°31'0 0.0
2017-Aug-18 19:23N 48°43' W 122°31'0 0.0
2017-Aug-18 18:59N 48°43' W 122°31'0 0.0
2017-Aug-18 18:23N 48°43' W 122°31'0 0.0
2017-Aug-18 17:53N 48°43' W 122°31'0 0.0
2017-Aug-18 17:23N 48°43' W 122°31'0 0.0
2017-Aug-18 16:59N 48°43' W 122°31'0 0.0
2017-Aug-18 16:29N 48°43' W 122°31'0 0.0
2017-Aug-18 15:59N 48°43' W 122°31'0 0.0
2017-Aug-18 15:29N 48°43' W 122°31'0 0.0
2017-Aug-18 14:59N 48°43' W 122°31'0 0.0
2017-Aug-18 13:53N 48°43' W 122°31'0 0.0
2017-Aug-18 13:29N 48°43' W 122°31'0 0.0
2017-Aug-18 12:53N 48°43' W 122°31'0 0.0
2017-Aug-18 12:29N 48°43' W 122°31'0 0.0
2017-Aug-18 11:59N 48°43' W 122°31'0 0.0
2017-Aug-18 11:29N 48°43' W 122°31'0 0.0
2017-Aug-18 10:59N 48°43' W 122°31'0 0.0
2017-Aug-18 10:29N 48°43' W 122°31'0 0.0
2017-Aug-18 09:59N 48°43' W 122°31'0 0.0
2017-Aug-18 09:29N 48°43' W 122°31'0 0.0
2017-Aug-18 08:53N 48°43' W 122°31'0 0.0
2017-Aug-18 08:29N 48°43' W 122°31'0 0.0
2017-Aug-18 07:53N 48°43' W 122°31'0 0.0
2017-Aug-18 06:47N 48°43' W 122°31'0 0.0
2017-Aug-18 05:41N 48°43' W 122°31'0 0.0
2017-Aug-18 05:29N 48°43' W 122°31'0 0.0
2017-Aug-18 04:47N 48°43' W 122°31'0 0.0
2017-Aug-18 04:29N 48°43' W 122°31'0 0.0
2017-Aug-18 02:53N 48°43' W 122°31'0 0.0
2017-Aug-18 02:29N 48°43' W 122°31'0 0.0
2017-Aug-18 01:53N 48°43' W 122°31'0 0.0
2017-Aug-18 01:29N 48°43' W 122°31'0 0.0
2017-Aug-18 00:59N 48°43' W 122°31'0 0.0
2017-Aug-18 00:17N 48°43' W 122°31'0 0.0
2017-Aug-17 23:59N 48°43' W 122°31'0 0.0
2017-Aug-17 23:29N 48°43' W 122°31'0 0.0
2017-Aug-17 22:59N 48°43' W 122°31'0 0.0
2017-Aug-17 22:29N 48°43' W 122°31'0 0.0
2017-Aug-17 21:59N 48°43' W 122°31'0 0.0
2017-Aug-17 21:21N 48°43' W 122°31'0 0.2
2017-Aug-17 21:00N 48°43' W 122°31'1 1.5
2017-Aug-17 20:31N 48°43' W 122°32'5 9.6
2017-Aug-17 20:00N 48°38' W 122°34'4 8.4
2017-Aug-17 19:30N 48°40' W 122°40'1 2.5
2017-Aug-17 19:00N 48°40' W 122°41'1 1.4
2017-Aug-17 18:30N 48°41' W 122°41'2 3.8
2017-Aug-17 18:00N 48°41' W 122°44'1 2.6
2017-Aug-17 17:30N 48°41' W 122°46'4 8.6
2017-Aug-17 17:01N 48°43' W 122°51'4 8.1
2017-Aug-17 16:30N 48°43' W 122°57'4 8.6
2017-Aug-17 16:01N 48°40' W 123°02'5 9.1
2017-Aug-17 15:30N 48°41' W 123°09'2 3.8
2017-Aug-17 14:57N 48°41' W 123°12'0 0.0
2017-Aug-17 14:30N 48°41' W 123°12'0 0.0
2017-Aug-17 13:57N 48°41' W 123°12'0 0.0
2017-Aug-17 13:27N 48°41' W 123°12'0 0.0
2017-Aug-17 13:00N 48°41' W 123°12'0 0.0
2017-Aug-17 12:24N 48°41' W 123°12'0 0.0
2017-Aug-17 12:00N 48°41' W 123°12'0 0.0
2017-Aug-17 11:27N 48°41' W 123°12'0 0.0
2017-Aug-17 11:00N 48°41' W 123°12'0 0.0
2017-Aug-17 10:30N 48°41' W 123°12'0 0.0
2017-Aug-17 09:51N 48°41' W 123°12'0 0.1
2017-Aug-17 09:21N 48°41' W 123°12'0 0.1
2017-Aug-17 08:51N 48°41' W 123°12'0 0.0
2017-Aug-17 08:09N 48°41' W 123°12'0 0.0
2017-Aug-17 07:54N 48°41' W 123°12'0 0.0
2017-Aug-17 07:27N 48°41' W 123°12'0 0.0
2017-Aug-17 07:00N 48°41' W 123°12'0 0.0
2017-Aug-17 06:24N 48°41' W 123°12'0 0.0
2017-Aug-17 05:57N 48°41' W 123°12'0 0.0
2017-Aug-17 05:27N 48°41' W 123°12'0 0.0
2017-Aug-17 04:57N 48°41' W 123°12'0 0.0
2017-Aug-17 04:27N 48°41' W 123°12'0 0.0
2017-Aug-17 04:00N 48°41' W 123°12'0 0.0
2017-Aug-17 03:12N 48°41' W 123°12'0 0.2
2017-Aug-17 03:00N 48°41' W 123°12'0 0.0
2017-Aug-17 02:27N 48°41' W 123°12'0 0.1
2017-Aug-17 01:51N 48°41' W 123°12'0 0.1
2017-Aug-17 01:12N 48°41' W 123°12'0 0.0
2017-Aug-17 01:00N 48°41' W 123°12'0 0.0
2017-Aug-17 00:30N 48°41' W 123°12'0 0.0
2017-Aug-16 23:24N 48°41' W 123°12'0 0.0
2017-Aug-16 23:00N 48°41' W 123°12'2 3.1
2017-Aug-16 22:30N 48°41' W 123°10'1 2.6
2017-Aug-16 22:00N 48°42' W 123°08'1 2.3
2017-Aug-16 21:30N 48°41' W 123°07'2 3.2
2017-Aug-16 21:00N 48°40' W 123°05'2 3.2
2017-Aug-16 20:30N 48°38' W 123°04'1 2.4
2017-Aug-16 20:00N 48°37' W 123°02'1 1.4
2017-Aug-16 19:30N 48°37' W 123°02'1 1.1
2017-Aug-16 19:00N 48°36' W 123°02'1 1.8
2017-Aug-16 18:30N 48°37' W 123°02'3 5.0
2017-Aug-16 18:00N 48°40' W 123°01'3 5.1
2017-Aug-16 17:30N 48°42' W 122°59'3 5.6
2017-Aug-16 17:00N 48°43' W 122°56'3 6.2
2017-Aug-16 16:30N 48°45' W 122°52'2 3.6
2017-Aug-16 16:00N 48°46' W 122°54'0 0.0
2017-Aug-16 15:20N 48°46' W 122°54'0 0.0
2017-Aug-16 14:41N 48°46' W 122°54'0 0.0
2017-Aug-16 14:20N 48°46' W 122°54'0 0.0
2017-Aug-16 11:44N 48°46' W 122°54'0 0.0
2017-Aug-16 11:14N 48°46' W 122°54'0 0.0
2017-Aug-16 08:59N 48°46' W 122°54'0 0.0
2017-Aug-16 08:14N 48°46' W 122°54'0 0.0
2017-Aug-16 07:56N 48°46' W 122°54'0 0.0
2017-Aug-16 07:23N 48°46' W 122°54'0 0.0
2017-Aug-16 05:23N 48°46' W 122°54'0 0.0
2017-Aug-16 04:56N 48°46' W 122°54'0 0.0
2017-Aug-16 04:11N 48°46' W 122°54'0 0.0
2017-Aug-15 23:29N 48°46' W 122°54'1 1.1
2017-Aug-15 22:55N 48°45' W 122°53'4 8.8
2017-Aug-15 22:30N 48°44' W 122°48'4 8.1
2017-Aug-15 22:00N 48°41' W 122°43'2 3.6
2017-Aug-15 21:31N 48°40' W 122°41'1 1.9
2017-Aug-15 21:00N 48°40' W 122°40'1 3.0
2017-Aug-15 20:30N 48°39' W 122°38'3 6.3
2017-Aug-15 20:00N 48°39' W 122°33'1 2.5
2017-Aug-15 19:31N 48°40' W 122°32'1 1.3
2017-Aug-15 18:58N 48°40' W 122°33'0 0.4
2017-Aug-15 18:31N 48°40' W 122°33'1 1.8
2017-Aug-15 17:58N 48°41' W 122°33'3 6.0
2017-Aug-15 17:30N 48°43' W 122°31'0 0.0
2017-Aug-15 16:48N 48°43' W 122°31'0 0.0
2017-Aug-15 16:24N 48°43' W 122°31'0 0.0
2017-Aug-15 15:48N 48°43' W 122°31'0 0.0
2017-Aug-15 15:30N 48°43' W 122°31'0 0.0
2017-Aug-15 14:18N 48°43' W 122°31'0 0.0
2017-Aug-15 14:00N 48°43' W 122°31'0 0.0
2017-Aug-15 13:30N 48°43' W 122°31'0 0.0
2017-Aug-15 13:00N 48°43' W 122°31'0 0.0
2017-Aug-15 12:30N 48°43' W 122°31'0 0.0
2017-Aug-15 12:00N 48°43' W 122°31'0 0.0
2017-Aug-15 11:24N 48°43' W 122°31'0 0.0
2017-Aug-15 11:00N 48°43' W 122°31'0 0.0
2017-Aug-15 10:30N 48°43' W 122°31'0 0.0
2017-Aug-15 10:00N 48°43' W 122°31'0 0.0
2017-Aug-15 09:24N 48°43' W 122°31'0 0.0
2017-Aug-15 08:48N 48°43' W 122°31'0 0.0
2017-Aug-15 08:30N 48°43' W 122°31'0 0.0
2017-Aug-15 08:00N 48°43' W 122°31'0 0.0
2017-Aug-15 07:24N 48°43' W 122°31'0 0.0
2017-Aug-15 07:00N 48°43' W 122°31'0 0.0
2017-Aug-15 06:30N 48°43' W 122°31'0 0.0
2017-Aug-15 06:00N 48°43' W 122°31'0 0.0
2017-Aug-15 05:24N 48°43' W 122°31'0 0.0
2017-Aug-15 04:48N 48°43' W 122°31'0 0.0
2017-Aug-15 04:30N 48°43' W 122°31'0 0.0
2017-Aug-15 03:00N 48°43' W 122°31'0 0.0
2017-Aug-15 02:30N 48°43' W 122°31'0 0.0
2017-Aug-15 01:48N 48°43' W 122°31'0 0.0
2017-Aug-15 01:27N 48°43' W 122°31'0 0.0
2017-Aug-15 00:54N 48°43' W 122°31'0 0.0
2017-Aug-14 22:19N 48°43' W 122°31'0 0.3
2017-Aug-14 21:59N 48°43' W 122°31'3 6.7
2017-Aug-14 21:30N 48°41' W 122°33'0 0.9
2017-Aug-14 20:59N 48°40' W 122°33'0 0.9
2017-Aug-14 20:30N 48°40' W 122°33'1 2.8
2017-Aug-14 20:00N 48°38' W 122°34'1 2.7
2017-Aug-14 19:30N 48°38' W 122°36'1 1.2
2017-Aug-14 19:00N 48°38' W 122°36'3 5.5
2017-Aug-14 18:30N 48°38' W 122°40'5 9.1
2017-Aug-14 18:00N 48°37' W 122°47'4 7.2
2017-Aug-14 17:30N 48°34' W 122°50'2 3.5
2017-Aug-14 17:00N 48°33' W 122°51'0 0.0
2017-Aug-14 16:30N 48°33' W 122°51'0 0.0
2017-Aug-14 16:00N 48°33' W 122°51'0 0.0
2017-Aug-14 15:26N 48°33' W 122°51'0 0.0
2017-Aug-14 14:59N 48°33' W 122°51'0 0.0
2017-Aug-14 14:29N 48°33' W 122°51'0 0.0
2017-Aug-14 13:59N 48°33' W 122°51'0 0.0
2017-Aug-14 13:26N 48°33' W 122°51'0 0.0
2017-Aug-14 12:59N 48°33' W 122°51'0 0.0
2017-Aug-14 12:29N 48°33' W 122°51'0 0.0
2017-Aug-14 11:59N 48°33' W 122°51'0 0.0
2017-Aug-14 11:29N 48°33' W 122°51'0 0.1
2017-Aug-14 10:56N 48°33' W 122°51'0 0.0
2017-Aug-14 10:29N 48°33' W 122°51'0 0.0
2017-Aug-14 09:59N 48°33' W 122°51'0 0.0
2017-Aug-14 09:29N 48°33' W 122°51'0 0.0
2017-Aug-14 08:59N 48°33' W 122°51'0 0.0
2017-Aug-14 08:29N 48°33' W 122°51'0 0.0
2017-Aug-14 07:59N 48°33' W 122°51'0 0.0
2017-Aug-14 07:29N 48°33' W 122°51'0 0.0
2017-Aug-14 06:59N 48°33' W 122°51'0 0.0
2017-Aug-14 06:29N 48°33' W 122°51'0 0.0
2017-Aug-14 05:56N 48°33' W 122°51'0 0.0
2017-Aug-14 05:29N 48°33' W 122°51'0 0.0
2017-Aug-14 04:56N 48°33' W 122°51'0 0.0
2017-Aug-14 04:29N 48°33' W 122°51'0 0.0
2017-Aug-14 03:56N 48°33' W 122°51'0 0.0
2017-Aug-14 03:29N 48°33' W 122°51'0 0.0
2017-Aug-14 02:56N 48°33' W 122°51'0 0.0
2017-Aug-14 02:29N 48°33' W 122°51'0 0.0
2017-Aug-14 01:59N 48°33' W 122°51'0 0.0
2017-Aug-14 01:26N 48°33' W 122°51'0 0.0
2017-Aug-14 00:59N 48°33' W 122°51'0 0.0
2017-Aug-14 00:29N 48°33' W 122°51'0 0.0
2017-Aug-13 23:53N 48°33' W 122°51'0 0.0
2017-Aug-13 23:30N 48°33' W 122°51'3 5.1
2017-Aug-13 23:00N 48°35' W 122°53'2 3.0
2017-Aug-13 22:30N 48°33' W 122°55'2 4.4
2017-Aug-13 22:00N 48°32' W 122°56'1 1.9
2017-Aug-13 21:30N 48°31' W 122°57'3 6.9
2017-Aug-13 21:00N 48°34' W 122°60'3 6.7
2017-Aug-13 20:30N 48°36' W 123°04'3 6.6
2017-Aug-13 20:00N 48°39' W 123°06'2 4.8
2017-Aug-13 19:30N 48°41' W 123°08'3 6.6
2017-Aug-13 19:00N 48°40' W 123°03'2 4.5
2017-Aug-13 18:30N 48°41' W 122°60'2 3.6
2017-Aug-13 18:00N 48°42' W 122°58'2 3.9
2017-Aug-13 17:30N 48°44' W 122°56'2 3.4
2017-Aug-13 16:57N 48°44' W 122°54'1 2.8
2017-Aug-13 16:30N 48°46' W 122°53'0 0.5
2017-Aug-13 15:44N 48°46' W 122°54'0 0.0
2017-Aug-13 15:29N 48°46' W 122°54'0 0.0
2017-Aug-13 14:59N 48°46' W 122°54'0 0.0
2017-Aug-13 14:08N 48°46' W 122°54'0 0.0
2017-Aug-13 13:59N 48°46' W 122°54'0 0.0
2017-Aug-13 04:17N 48°46' W 122°54'0 0.0
2017-Aug-13 00:02N 48°46' W 122°54'0 0.0
2017-Aug-12 23:50N 48°46' W 122°54'0 0.0
2017-Aug-12 23:11N 48°46' W 122°54'  

Dump ship's entire track history